Time;durP1;ratioP1;P1;durP2;ratioP2;P2;SDS_P1;SDS_P2;PMS_P1;PMS_P2;Temp;Humidity;BMP_temperature;BMP_pressure;BME280_temperature;BME280_humidity;BME280_pressure;Samples;Min_cycle;Max_cycle;Signal;HPM_P1;HPM_P2
2022/04/03 00:01:44;;;;;;;3.85;3.50;;;-1.20;99.90;;;;;;5013079;28;20063;-72
2022/04/03 00:04:09;;;;;;;0.43;0.43;;;-1.10;99.90;;;;;;4995877;28;20501;-72
2022/04/03 00:06:35;;;;;;;0.60;0.60;;;-1.10;99.90;;;;;;5012131;28;20048;-72
2022/04/03 00:09:02;;;;;;;0.60;0.60;;;-1.00;99.90;;;;;;4996807;28;20128;-72
2022/04/03 00:11:28;;;;;;;0.60;0.60;;;-0.90;99.90;;;;;;4995703;28;20524;-72
2022/04/03 00:13:55;;;;;;;0.60;0.60;;;-0.90;99.90;;;;;;4996019;28;20163;-72
2022/04/03 00:16:20;;;;;;;0.60;0.60;;;-0.80;99.90;;;;;;5011471;28;20061;-72
2022/04/03 00:18:46;;;;;;;0.60;0.60;;;-0.70;99.90;;;;;;5010472;28;20068;-72
2022/04/03 00:21:13;;;;;;;0.50;0.50;;;-0.70;99.90;;;;;;4996484;28;20038;-72
2022/04/03 00:23:39;;;;;;;0.70;0.70;;;-0.60;99.90;;;;;;4996075;28;20069;-72
2022/04/03 00:26:05;;;;;;;0.70;0.70;;;-0.60;99.90;;;;;;4991979;28;20050;-72
2022/04/03 00:28:31;;;;;;;1.35;1.35;;;-0.50;99.90;;;;;;5013785;28;20046;-72
2022/04/03 00:30:57;;;;;;;1.50;1.10;;;-0.40;99.90;;;;;;5011396;28;20037;-72
2022/04/03 00:33:23;;;;;;;0.50;0.50;;;-0.30;99.90;;;;;;4994892;28;20034;-72
2022/04/03 00:35:50;;;;;;;0.57;0.57;;;-0.30;99.90;;;;;;5012329;28;20456;-72
2022/04/03 00:38:16;;;;;;;0.80;0.80;;;-0.20;99.90;;;;;;4996068;28;20033;-72
2022/04/03 00:40:44;;;;;;;0.60;0.60;;;-0.10;99.90;;;;;;4996080;28;20053;-72
2022/04/03 00:43:10;;;;;;;0.70;0.70;;;-0.10;99.90;;;;;;5011844;28;20056;-72
2022/04/03 00:45:36;;;;;;;0.60;0.60;;;-0.10;99.90;;;;;;5012396;28;20580;-72
2022/04/03 00:48:02;;;;;;;0.50;0.50;;;0.00;99.90;;;;;;4995707;28;20068;-72
2022/04/03 00:50:28;;;;;;;0.60;0.60;;;0.00;99.90;;;;;;4995635;28;20052;-72
2022/04/03 00:52:53;;;;;;;0.60;0.60;;;0.00;99.90;;;;;;4995614;28;20128;-73
2022/04/03 00:55:19;;;;;;;0.80;0.80;;;0.00;99.90;;;;;;4995627;28;20466;-72
2022/04/03 00:57:45;;;;;;;0.60;0.60;;;0.00;99.90;;;;;;5011809;28;20037;-73
2022/04/03 01:00:15;;;;;;;0.63;0.63;;;0.00;99.90;;;;;;5012072;28;20489;-73
2022/04/03 01:02:41;;;;;;;0.93;0.93;;;0.00;99.90;;;;;;4995281;28;20468;-73
2022/04/03 01:05:07;;;;;;;0.85;0.85;;;0.00;99.90;;;;;;5011187;28;20037;-73
2022/04/03 01:07:33;;;;;;;0.70;0.70;;;-0.10;99.90;;;;;;4995227;28;20045;-73
2022/04/03 01:10:00;;;;;;;1.33;0.90;;;-0.10;99.90;;;;;;4994709;28;20041;-73
2022/04/03 01:12:26;;;;;;;0.52;0.52;;;-0.10;99.90;;;;;;4995682;28;20403;-73
2022/04/03 01:14:51;;;;;;;1.35;1.35;;;-0.20;99.90;;;;;;4994894;28;20037;-73
2022/04/03 01:17:17;;;;;;;0.93;0.93;;;-0.20;99.90;;;;;;4994267;28;20075;-73
2022/04/03 01:19:43;;;;;;;0.60;0.60;;;-0.30;99.90;;;;;;4997559;28;20041;-73
2022/04/03 01:22:09;;;;;;;0.93;0.93;;;-0.30;99.90;;;;;;5011951;28;20049;-73
2022/04/03 01:24:35;;;;;;;0.68;0.68;;;-0.40;99.90;;;;;;5009182;28;20041;-73
2022/04/03 01:27:01;;;;;;;1.17;1.17;;;-0.50;99.90;;;;;;5010937;28;20111;-73
2022/04/03 01:29:27;;;;;;;1.88;1.77;;;-0.50;99.90;;;;;;4993829;28;20383;-73
2022/04/03 01:31:53;;;;;;;0.50;0.50;;;-0.60;99.90;;;;;;5011187;28;20048;-73
2022/04/03 01:34:20;;;;;;;0.50;0.50;;;-0.60;99.90;;;;;;5011322;28;20033;-73
2022/04/03 01:36:46;;;;;;;0.60;0.60;;;-0.70;99.90;;;;;;4994437;28;20033;-73
2022/04/03 01:39:12;;;;;;;0.50;0.50;;;-0.70;99.90;;;;;;5010713;28;20129;-73
2022/04/03 01:41:39;;;;;;;0.50;0.50;;;-0.70;99.90;;;;;;5010863;28;20041;-73
2022/04/03 01:44:06;;;;;;;0.60;0.60;;;-0.70;99.90;;;;;;5010372;28;20047;-73
2022/04/03 01:46:32;;;;;;;0.60;0.60;;;-0.70;99.90;;;;;;4990759;28;20085;-73
2022/04/03 01:48:58;;;;;;;0.50;0.50;;;-0.70;99.90;;;;;;4994506;28;20041;-73
2022/04/03 01:51:23;;;;;;;0.60;0.60;;;-0.80;99.90;;;;;;4994561;28;20045;-73
2022/04/03 01:53:49;;;;;;;0.50;0.50;;;-0.80;99.90;;;;;;5008378;28;20041;-73
2022/04/03 01:56:14;;;;;;;0.60;0.60;;;-0.80;99.90;;;;;;5011179;28;20041;-73
2022/04/03 01:58:40;;;;;;;1.13;1.13;;;-0.80;99.90;;;;;;5011119;28;20037;-73
2022/04/03 02:01:06;;;;;;;0.57;0.57;;;-0.80;99.90;;;;;;5010725;28;20045;-73
2022/04/03 02:03:31;;;;;;;0.60;0.60;;;-0.80;99.90;;;;;;4994777;28;20048;-73
2022/04/03 02:05:57;;;;;;;0.90;0.90;;;-0.80;99.90;;;;;;4994793;28;20127;-73
2022/04/03 02:08:27;;;;;;;0.80;0.80;;;-0.80;99.90;;;;;;4989966;28;20037;-73
2022/04/03 02:10:53;;;;;;;1.33;1.33;;;-0.80;99.90;;;;;;5008687;28;20048;-73
2022/04/03 02:13:19;;;;;;;0.50;0.50;;;-0.80;99.90;;;;;;5012355;28;20030;-73
2022/04/03 02:15:45;;;;;;;0.60;0.60;;;-0.80;99.90;;;;;;5010822;28;20477;-73
2022/04/03 02:18:12;;;;;;;0.50;0.50;;;-0.80;99.90;;;;;;4995046;28;20413;-73
2022/04/03 02:20:39;;;;;;;0.50;0.50;;;-0.80;99.90;;;;;;4999001;28;20037;-74
2022/04/03 02:23:05;;;;;;;1.30;1.30;;;-0.80;99.90;;;;;;5004368;28;20509;-73
2022/04/03 02:25:31;;;;;;;0.60;0.60;;;-0.70;99.90;;;;;;4994608;28;20072;-74
2022/04/03 02:27:59;;;;;;;2.72;1.35;;;-0.70;99.90;;;;;;5006394;28;20452;-73
2022/04/03 02:30:25;;;;;;;0.82;0.82;;;-0.80;99.90;;;;;;4999121;28;20171;-72
2022/04/03 02:32:50;;;;;;;0.50;0.50;;;-0.70;99.90;;;;;;5010827;28;20183;-72
2022/04/03 02:35:17;;;;;;;0.60;0.60;;;-0.80;99.90;;;;;;4994410;28;20140;-72
2022/04/03 02:37:43;;;;;;;0.80;0.80;;;-0.80;99.90;;;;;;5002744;28;20584;-72
2022/04/03 02:40:14;;;;;;;0.60;0.60;;;-0.70;99.90;;;;;;4996144;28;20502;-72
2022/04/03 02:42:40;;;;;;;0.70;0.70;;;-0.70;99.90;;;;;;5010789;28;20042;-73
2022/04/03 02:45:07;;;;;;;0.70;0.70;;;-0.70;99.90;;;;;;5008785;28;20152;-72
2022/04/03 02:47:33;;;;;;;1.17;1.15;;;-0.70;99.90;;;;;;5014167;28;20045;-72
2022/04/03 02:50:00;;;;;;;1.05;1.05;;;-0.60;99.90;;;;;;4997723;28;20038;-72
2022/04/03 02:52:25;;;;;;;0.55;0.55;;;-0.60;99.90;;;;;;4997514;28;20461;-72
2022/04/03 02:54:51;;;;;;;0.50;0.50;;;-0.50;99.90;;;;;;4997964;28;20111;-72
2022/04/03 02:57:17;;;;;;;0.60;0.60;;;-0.40;99.90;;;;;;4997795;28;20449;-71
2022/04/03 02:59:46;;;;;;;0.50;0.50;;;-0.30;99.90;;;;;;4997679;28;20060;-72
2022/04/03 03:02:12;;;;;;;0.98;0.98;;;-0.30;99.90;;;;;;5014451;28;20041;-72
2022/04/03 03:04:38;;;;;;;0.60;0.60;;;-0.20;99.90;;;;;;4996961;28;20103;-72
2022/04/03 03:07:09;;;;;;;0.60;0.60;;;-0.10;99.90;;;;;;5005238;28;20041;-72
2022/04/03 03:09:35;;;;;;;0.50;0.50;;;-0.10;99.90;;;;;;5013488;28;20056;-72
2022/04/03 03:12:01;;;;;;;0.57;0.57;;;0.00;99.90;;;;;;5013874;28;20083;-72
2022/04/03 03:14:27;;;;;;;0.50;0.50;;;0.00;99.90;;;;;;4996939;28;20405;-72
2022/04/03 03:16:53;;;;;;;0.50;0.50;;;0.00;99.90;;;;;;5013807;28;20087;-72
2022/04/03 03:19:19;;;;;;;2.15;1.98;;;0.00;99.90;;;;;;5012418;28;20057;-72
2022/04/03 03:21:45;;;;;;;0.60;0.60;;;0.00;99.90;;;;;;4997655;28;20052;-72
2022/04/03 03:24:10;;;;;;;0.50;0.50;;;0.10;99.90;;;;;;4997030;28;20075;-72
2022/04/03 03:26:37;;;;;;;0.65;0.65;;;0.10;99.90;;;;;;4993775;28;20049;-73
2022/04/03 03:29:03;;;;;;;1.52;1.42;;;0.10;99.90;;;;;;5003321;28;20418;-72
2022/04/03 03:31:29;;;;;;;7.03;1.45;;;0.20;99.90;;;;;;5009967;28;20175;-72
2022/04/03 03:33:54;;;;;;;1.10;1.10;;;0.20;99.90;;;;;;5009957;28;20120;-72
2022/04/03 03:36:20;;;;;;;0.50;0.50;;;0.30;99.90;;;;;;5009737;28;20053;-72
2022/04/03 03:38:45;;;;;;;0.90;0.90;;;0.30;99.90;;;;;;4993797;28;20044;-72
2022/04/03 03:41:11;;;;;;;4.63;3.85;;;0.30;99.90;;;;;;5010040;28;20044;-72
2022/04/03 03:43:37;;;;;;;1.60;1.50;;;0.50;99.90;;;;;;5009533;28;20494;-72
2022/04/03 03:46:03;;;;;;;0.63;0.63;;;0.70;99.90;;;;;;4993024;28;20048;-72
2022/04/03 03:48:28;;;;;;;1.25;0.90;;;0.80;99.90;;;;;;4993136;28;20049;-72
2022/04/03 03:50:55;;;;;;;0.80;0.80;;;0.80;99.90;;;;;;4989302;28;20117;-73
2022/04/03 03:53:21;;;;;;;0.70;0.70;;;0.80;99.90;;;;;;4982871;28;20046;-73
2022/04/03 03:55:47;;;;;;;0.50;0.50;;;0.70;99.90;;;;;;5006861;28;20608;-70
2022/04/03 03:58:13;;;;;;;0.57;0.57;;;0.60;99.90;;;;;;4993512;28;20121;-73
2022/04/03 04:00:38;;;;;;;0.60;0.60;;;0.50;99.90;;;;;;5009788;28;20045;-72
2022/04/03 04:03:04;;;;;;;0.60;0.60;;;0.40;99.90;;;;;;4992814;28;20521;-72
2022/04/03 04:05:30;;;;;;;1.02;1.02;;;0.30;99.90;;;;;;5001876;28;20264;-72
2022/04/03 04:07:56;;;;;;;0.60;0.60;;;0.20;99.90;;;;;;4992752;28;20477;-72
2022/04/03 04:10:21;;;;;;;0.55;0.55;;;0.10;99.90;;;;;;5009695;28;20052;-72
2022/04/03 04:12:48;;;;;;;0.60;0.60;;;0.00;99.90;;;;;;4991526;28;20064;-72
2022/04/03 04:15:15;;;;;;;0.50;0.50;;;0.00;99.90;;;;;;5009135;28;20048;-72
2022/04/03 04:17:48;;;;;;;0.50;0.50;;;0.00;99.90;;;;;;5006765;28;20045;-72
2022/04/03 04:20:16;;;;;;;0.60;0.60;;;0.00;99.90;;;;;;4991089;28;20044;-72
2022/04/03 04:22:43;;;;;;;0.60;0.60;;;-0.10;99.90;;;;;;5009264;28;20050;-72
2022/04/03 04:25:13;;;;;;;0.50;0.50;;;-0.10;99.90;;;;;;4991607;28;20061;-72
2022/04/03 04:27:40;;;;;;;0.60;0.60;;;-0.10;99.90;;;;;;4991192;28;20199;-72
2022/04/03 04:30:08;;;;;;;0.65;0.65;;;-0.20;99.90;;;;;;4991678;28;20038;-72
2022/04/03 04:32:34;;;;;;;0.60;0.60;;;-0.20;99.90;;;;;;5008756;28;20505;-72
2022/04/03 04:34:59;;;;;;;0.60;0.60;;;-0.20;99.90;;;;;;4992369;28;20045;-72
2022/04/03 04:37:25;;;;;;;0.70;0.70;;;-0.20;99.90;;;;;;4992867;28;20049;-72
2022/04/03 04:39:52;;;;;;;0.77;0.77;;;-0.20;99.90;;;;;;5008909;28;20462;-73
2022/04/03 04:42:18;;;;;;;0.60;0.60;;;-0.20;99.90;;;;;;4992748;28;20092;-73
2022/04/03 04:44:44;;;;;;;0.60;0.60;;;-0.20;99.90;;;;;;5008928;28;20045;-73
2022/04/03 04:47:10;;;;;;;1.90;1.80;;;-0.20;99.90;;;;;;4992045;28;20076;-73
2022/04/03 04:49:36;;;;;;;0.70;0.70;;;-0.20;99.90;;;;;;4991021;28;20092;-73
2022/04/03 04:52:03;;;;;;;0.50;0.50;;;-0.30;99.90;;;;;;5008904;28;20879;-73
2022/04/03 04:54:29;;;;;;;0.60;0.60;;;-0.30;99.90;;;;;;5008435;28;20042;-73
2022/04/03 04:56:55;;;;;;;0.60;0.60;;;-0.30;99.90;;;;;;5008040;28;20053;-73
2022/04/03 04:59:21;;;;;;;0.60;0.60;;;-0.40;99.90;;;;;;4992253;28;20946;-73
2022/04/03 05:01:46;;;;;;;0.70;0.70;;;-0.50;99.90;;;;;;5008507;28;20045;-73
2022/04/03 05:04:12;;;;;;;0.60;0.60;;;-0.50;99.90;;;;;;4990884;28;20052;-73
2022/04/03 05:06:38;;;;;;;0.63;0.63;;;-0.60;99.90;;;;;;5008065;28;20042;-73
2022/04/03 05:09:04;;;;;;;0.57;0.57;;;-0.60;99.90;;;;;;5008103;28;20099;-73
2022/04/03 05:11:30;;;;;;;0.70;0.70;;;-0.70;99.90;;;;;;5023362;28;20046;-73
2022/04/03 05:13:57;;;;;;;0.60;0.60;;;-0.70;99.90;;;;;;4985150;28;20409;-73
2022/04/03 05:16:23;;;;;;;0.60;0.60;;;-0.70;99.90;;;;;;4991923;28;20053;-73
2022/04/03 05:18:48;;;;;;;0.70;0.70;;;-0.80;99.90;;;;;;4997156;28;20038;-73
2022/04/03 05:21:14;;;;;;;0.60;0.60;;;-0.80;99.90;;;;;;4992128;28;20466;-73
2022/04/03 05:23:41;;;;;;;0.60;0.60;;;-0.80;99.90;;;;;;5008167;28;20133;-73
2022/04/03 05:26:06;;;;;;;0.60;0.60;;;-0.80;99.90;;;;;;4991654;28;20057;-73
2022/04/03 05:28:32;;;;;;;1.08;1.08;;;-0.70;99.90;;;;;;4991859;28;20455;-73
2022/04/03 05:30:58;;;;;;;0.80;0.80;;;-0.60;99.90;;;;;;4991651;28;20074;-73
2022/04/03 05:33:24;;;;;;;0.70;0.70;;;-0.50;99.90;;;;;;5007787;28;20088;-73
2022/04/03 05:35:50;;;;;;;0.55;0.55;;;-0.40;99.90;;;;;;4991500;28;20477;-73
2022/04/03 05:38:16;;;;;;;0.60;0.60;;;-0.30;99.90;;;;;;5006611;28;20038;-73
2022/04/03 05:40:42;;;;;;;1.05;1.05;;;-0.30;99.90;;;;;;5007802;28;20045;-73
2022/04/03 05:43:08;;;;;;;0.60;0.60;;;-0.20;99.90;;;;;;4990726;28;20041;-73
2022/04/03 05:45:34;;;;;;;0.50;0.50;;;-0.10;99.90;;;;;;5007831;28;20045;-73
2022/04/03 05:47:59;;;;;;;0.85;0.85;;;0.00;99.90;;;;;;5007813;28;20053;-73
2022/04/03 05:50:25;;;;;;;0.55;0.55;;;0.00;99.90;;;;;;5007706;28;20343;-73
2022/04/03 05:52:52;;;;;;;1.08;1.08;;;0.00;99.90;;;;;;4990085;28;20042;-73
2022/04/03 05:55:20;;;;;;;0.57;0.57;;;0.00;99.90;;;;;;5007497;28;20044;-73
2022/04/03 05:57:47;;;;;;;0.65;0.65;;;0.10;99.90;;;;;;4990470;28;20453;-73
2022/04/03 06:00:15;;;;;;;0.60;0.60;;;0.10;99.90;;;;;;4990411;28;20030;-73
2022/04/03 06:02:53;;;;;;;0.60;0.60;;;0.30;99.90;;;;;;4998137;28;20069;-72
2022/04/03 06:05:21;;;;;;;0.60;0.60;;;0.40;99.90;;;;;;4987900;28;20135;-73
2022/04/03 06:07:47;;;;;;;0.70;0.70;;;0.50;99.90;;;;;;5005042;28;20434;-73
2022/04/03 06:10:14;;;;;;;0.60;0.60;;;0.50;99.90;;;;;;5007608;28;20053;-73
2022/04/03 06:13:04;;;;;;;0.60;0.60;;;0.70;99.90;;;;;;4990744;28;20046;-73
2022/04/03 06:15:36;;;;;;;0.60;0.60;;;1.20;99.90;;;;;;4990727;28;20044;-73
2022/04/03 06:18:04;;;;;;;0.70;0.70;;;1.60;99.90;;;;;;4986507;28;20034;-73
2022/04/03 06:20:30;;;;;;;2.45;1.05;;;1.80;99.90;;;;;;4988481;28;20284;-73
2022/04/03 06:22:56;;;;;;;0.70;0.70;;;1.80;99.90;;;;;;5006517;28;20049;-73
2022/04/03 06:25:22;;;;;;;0.50;0.50;;;1.80;99.90;;;;;;5007064;28;20050;-73
2022/04/03 06:27:51;;;;;;;0.70;0.70;;;1.90;99.90;;;;;;5006766;28;20140;-73
2022/04/03 06:30:16;;;;;;;4.40;1.70;;;2.00;99.90;;;;;;4989633;28;20045;-73
2022/04/03 06:32:42;;;;;;;0.60;0.60;;;2.20;99.90;;;;;;5007629;28;20057;-73
2022/04/03 06:35:09;;;;;;;0.75;0.75;;;2.30;99.90;;;;;;4990242;28;20122;-73
2022/04/03 06:37:34;;;;;;;0.60;0.60;;;2.50;99.90;;;;;;4991542;28;20042;-73
2022/04/03 06:40:00;;;;;;;1.02;1.02;;;2.70;99.90;;;;;;4990768;28;20048;-72
2022/04/03 06:42:29;;;;;;;4.05;0.95;;;2.90;99.90;;;;;;4991311;28;20030;-72
2022/04/03 06:44:54;;;;;;;1.85;1.27;;;3.00;99.90;;;;;;5007023;28;20457;-72
2022/04/03 06:47:20;;;;;;;1.83;1.73;;;3.00;99.90;;;;;;5007312;28;20046;-72
2022/04/03 06:49:46;;;;;;;1.35;1.27;;;3.10;99.90;;;;;;5006853;28;20049;-72
2022/04/03 06:52:11;;;;;;;0.68;0.68;;;3.20;99.90;;;;;;4990284;28;20042;-72
2022/04/03 06:54:37;;;;;;;0.95;0.95;;;3.30;99.90;;;;;;4986227;28;20043;-72
2022/04/03 06:57:03;;;;;;;6.03;1.88;;;3.40;99.90;;;;;;4993212;28;20122;-72
2022/04/03 06:59:29;;;;;;;0.93;0.93;;;3.50;99.90;;;;;;4978368;28;20414;-72
2022/04/03 07:01:55;;;;;;;0.85;0.85;;;3.60;99.90;;;;;;4996220;28;20396;-72
2022/04/03 07:04:22;;;;;;;0.55;0.55;;;3.80;99.90;;;;;;5000802;28;20076;-72
2022/04/03 07:06:48;;;;;;;0.50;0.50;;;3.80;99.90;;;;;;5004077;28;20050;-72
2022/04/03 07:09:14;;;;;;;0.80;0.80;;;3.90;99.90;;;;;;4989820;28;20041;-73
2022/04/03 07:11:40;;;;;;;7.82;0.93;;;4.10;99.90;;;;;;4990437;28;20112;-72
2022/04/03 07:14:05;;;;;;;1.15;0.90;;;4.20;99.90;;;;;;5004203;28;20042;-72
2022/04/03 07:16:31;;;;;;;7.97;1.77;;;4.30;99.90;;;;;;4975651;28;20387;-72
2022/04/03 07:18:57;;;;;;;1.13;1.02;;;4.40;99.90;;;;;;5004131;28;20046;-72
2022/04/03 07:21:23;;;;;;;4.57;1.05;;;4.50;99.90;;;;;;4990500;28;20107;-72
2022/04/03 07:23:49;;;;;;;0.60;0.60;;;4.60;99.90;;;;;;4990590;28;20046;-72
2022/04/03 07:26:14;;;;;;;1.10;1.10;;;4.60;99.90;;;;;;5005744;28;20069;-72
2022/04/03 07:28:40;;;;;;;1.05;1.05;;;4.70;99.90;;;;;;5001827;28;20124;-72
2022/04/03 07:31:07;;;;;;;0.60;0.60;;;4.80;99.90;;;;;;5010445;28;20046;-72
2022/04/03 07:33:32;;;;;;;0.52;0.52;;;4.90;99.90;;;;;;5009840;28;20129;-72
2022/04/03 07:35:58;;;;;;;0.52;0.52;;;5.00;99.90;;;;;;5009550;28;20124;-72
2022/04/03 07:38:23;;;;;;;1.27;1.17;;;5.00;99.90;;;;;;5009488;28;20486;-72
2022/04/03 07:40:49;;;;;;;0.98;0.98;;;5.20;99.90;;;;;;4992767;28;20042;-72
2022/04/03 07:43:16;;;;;;;3.22;0.70;;;5.30;99.90;;;;;;4993113;28;20037;-72
2022/04/03 07:45:46;;;;;;;3.05;1.15;;;5.40;99.90;;;;;;4993787;28;20049;-72
2022/04/03 07:48:12;;;;;;;0.60;0.60;;;5.50;99.90;;;;;;5009506;28;20045;-72
2022/04/03 07:50:38;;;;;;;3.90;1.33;;;5.60;99.90;;;;;;4992791;28;20081;-72
2022/04/03 07:53:05;;;;;;;0.93;0.93;;;5.80;99.90;;;;;;4993461;28;20409;-72
2022/04/03 07:55:30;;;;;;;0.70;0.70;;;5.80;99.90;;;;;;5009967;28;20049;-73
2022/04/03 07:57:56;;;;;;;2.92;0.77;;;5.90;99.90;;;;;;4984857;28;20030;-73
2022/04/03 08:00:22;;;;;;;0.47;0.47;;;6.10;99.90;;;;;;5009418;28;20033;-73
2022/04/03 08:02:47;;;;;;;0.77;0.77;;;6.20;99.90;;;;;;4993500;28;21319;-72
2022/04/03 08:05:13;;;;;;;8.07;1.02;;;6.40;99.90;;;;;;5007159;28;20042;-72
2022/04/03 08:07:45;;;;;;;1.05;0.95;;;6.40;99.90;;;;;;4991328;28;20097;-72
2022/04/03 08:10:17;;;;;;;4.57;1.27;;;6.40;99.90;;;;;;4991327;28;20045;-72
2022/04/03 08:12:44;;;;;;;2.33;1.27;;;6.50;99.90;;;;;;4991144;28;20041;-70
2022/04/03 08:15:11;;;;;;;2.72;1.55;;;6.70;99.90;;;;;;5005801;28;20104;-71
2022/04/03 08:17:38;;;;;;;1.38;1.20;;;6.80;99.90;;;;;;5005374;28;20044;-72
2022/04/03 08:20:05;;;;;;;3.47;1.50;;;6.80;99.90;;;;;;5008653;28;20041;-72
2022/04/03 08:22:31;;;;;;;2.28;1.88;;;6.70;99.90;;;;;;4992560;28;20386;-71
2022/04/03 08:24:57;;;;;;;3.63;1.17;;;6.60;99.90;;;;;;4992689;28;20162;-71
2022/04/03 08:27:23;;;;;;;1.27;0.88;;;6.60;99.90;;;;;;5024133;28;20499;-71
2022/04/03 08:29:49;;;;;;;0.82;0.82;;;6.60;99.90;;;;;;4992857;28;20105;-71
2022/04/03 08:32:15;;;;;;;4.78;0.95;;;6.70;99.90;;;;;;4992686;28;20181;-71
2022/04/03 08:34:41;;;;;;;0.38;0.38;;;6.80;99.90;;;;;;4993004;28;20113;-71
2022/04/03 08:37:06;;;;;;;0.50;0.50;;;7.00;99.90;;;;;;5009123;28;20033;-72
2022/04/03 08:39:33;;;;;;;2.13;1.92;;;7.50;99.90;;;;;;4992655;28;20046;-71
2022/04/03 08:41:59;;;;;;;1.40;0.65;;;7.80;99.90;;;;;;5007812;28;20041;-71
2022/04/03 08:44:25;;;;;;;0.75;0.75;;;7.80;99.90;;;;;;4991123;28;20053;-72
2022/04/03 08:46:51;;;;;;;1.42;1.27;;;7.70;99.90;;;;;;5009198;28;20053;-71
2022/04/03 08:49:19;;;;;;;1.75;0.90;;;7.60;99.90;;;;;;5009293;28;20057;-71
2022/04/03 08:51:46;;;;;;;0.35;0.35;;;7.40;99.90;;;;;;5008099;28;20800;-72
2022/04/03 08:54:14;;;;;;;2.25;1.40;;;7.30;99.90;;;;;;5025286;28;20050;-72
2022/04/03 08:56:42;;;;;;;1.00;0.60;;;7.30;99.90;;;;;;4992718;28;20395;-71
2022/04/03 08:59:08;;;;;;;0.50;0.50;;;7.20;99.90;;;;;;4992735;28;20042;-71
2022/04/03 09:01:34;;;;;;;1.17;0.60;;;7.20;99.90;;;;;;4991533;28;20073;-71
2022/04/03 09:04:00;;;;;;;0.60;0.50;;;7.10;99.90;;;;;;5008310;28;20080;-71
2022/04/03 09:06:25;;;;;;;1.70;0.65;;;7.00;99.90;;;;;;4992725;28;20065;-71
2022/04/03 09:08:51;;;;;;;0.52;0.50;;;7.70;99.90;;;;;;5008675;28;20049;-71
2022/04/03 09:11:18;;;;;;;1.27;0.60;;;8.80;99.90;;;;;;5008613;28;20034;-71
2022/04/03 09:13:44;;;;;;;1.20;1.10;;;9.20;99.90;;;;;;5008857;28;20041;-72
2022/04/03 09:16:11;;;;;;;0.60;0.60;;;8.80;99.90;;;;;;4984822;28;20085;-71
2022/04/03 09:18:51;;;;;;;0.80;0.80;;;8.20;99.90;;;;;;4995646;28;20149;-71
2022/04/03 09:21:23;;;;;;;0.57;0.57;;;7.60;99.90;;;;;;5005690;28;20038;-71
2022/04/03 09:24:02;;;;;;;1.35;1.00;;;7.20;99.90;;;;;;4991810;28;20042;-72
2022/04/03 09:26:29;;;;;;;2.13;0.95;;;7.90;99.90;;;;;;5024592;28;20132;-72
2022/04/03 09:29:10;;;;;;;1.20;0.70;;;8.80;99.90;;;;;;4991925;28;20568;-72
2022/04/03 09:31:36;;;;;;;1.08;1.08;;;9.70;99.90;;;;;;5005390;28;20483;-72
2022/04/03 09:34:04;;;;;;;0.60;0.60;;;10.50;99.90;;;;;;5014081;28;20143;-72
2022/04/03 09:36:33;;;;;;;1.20;0.50;;;10.90;99.90;;;;;;5005070;28;20049;-72
2022/04/03 09:39:15;;;;;;;1.17;1.08;;;10.50;98.70;;;;;;5020921;28;20038;-72
2022/04/03 09:41:58;;;;;;;0.50;0.50;;;9.70;99.10;;;;;;4995026;28;20123;-72
2022/04/03 09:44:35;;;;;;;0.60;0.60;;;9.00;99.90;;;;;;5008638;28;20037;-72
2022/04/03 09:47:17;;;;;;;0.30;0.30;;;8.60;99.90;;;;;;4992053;28;20081;-73
2022/04/03 09:49:50;;;;;;;1.05;0.98;;;8.10;99.90;;;;;;5007647;28;20580;-72
2022/04/03 09:52:35;;;;;;;0.52;0.52;;;7.90;99.90;;;;;;5005203;28;20073;-73
2022/04/03 09:55:29;;;;;;;0.28;0.28;;;8.80;99.90;;;;;;5008185;28;20037;-73
2022/04/03 09:58:03;;;;;;;4.07;1.38;;;10.00;99.90;;;;;;4989993;28;20061;-72
2022/04/03 10:00:41;;;;;;;2.67;1.48;;;10.30;98.00;;;;;;4991916;28;20419;-73
2022/04/03 10:03:08;;;;;;;2.13;0.77;;;9.90;96.10;;;;;;5007366;28;20054;-72
2022/04/03 10:05:34;;;;;;;0.85;0.52;;;9.50;96.00;;;;;;4987697;28;20127;-72
2022/04/03 10:08:01;;;;;;;7.78;5.22;;;9.80;98.60;;;;;;4989423;28;20054;-72
2022/04/03 10:10:31;;;;;;;2.28;2.03;;;10.50;98.70;;;;;;4989806;28;20595;-72
2022/04/03 10:12:58;;;;;;;3.50;0.70;;;10.90;94.40;;;;;;5012449;28;20394;-72
2022/04/03 10:15:24;;;;;;;0.30;0.30;;;11.20;90.80;;;;;;5002029;28;20052;-73
2022/04/03 10:17:50;;;;;;;1.77;1.27;;;10.90;90.70;;;;;;4998179;28;20053;-72
2022/04/03 10:20:16;;;;;;;1.13;0.75;;;10.50;89.60;;;;;;5004449;28;20517;-72
2022/04/03 10:22:45;;;;;;;1.92;0.98;;;10.00;89.70;;;;;;4987601;28;20485;-72
2022/04/03 10:25:14;;;;;;;1.40;1.30;;;9.50;91.70;;;;;;5003939;28;20429;-72
2022/04/03 10:27:42;;;;;;;1.00;1.00;;;9.10;93.30;;;;;;4990181;28;20049;-73
2022/04/03 10:30:10;;;;;;;0.68;0.68;;;8.90;94.70;;;;;;4989150;28;20398;-72
2022/04/03 10:32:36;;;;;;;1.10;0.98;;;8.60;94.80;;;;;;4986704;28;20045;-73
2022/04/03 10:35:12;;;;;;;1.85;1.05;;;8.40;96.30;;;;;;4990304;28;20061;-72
2022/04/03 10:37:40;;;;;;;1.15;0.93;;;8.30;97.20;;;;;;4989998;28;20052;-72
2022/04/03 10:40:10;;;;;;;1.00;0.85;;;8.30;97.90;;;;;;5007930;28;20422;-72
2022/04/03 10:42:55;;;;;;;10.85;0.43;;;8.30;98.60;;;;;;4990105;28;20052;-72
2022/04/03 10:45:30;;;;;;;0.98;0.98;;;8.20;98.70;;;;;;4988005;28;20453;-73
2022/04/03 10:48:20;;;;;;;0.30;0.30;;;8.00;99.50;;;;;;5005954;28;20080;-72
2022/04/03 10:51:06;;;;;;;0.57;0.57;;;7.90;99.70;;;;;;4989173;28;20092;-72
2022/04/03 10:53:47;;;;;;;10.20;1.52;;;7.90;99.60;;;;;;4995714;28;20072;-73
2022/04/03 10:56:28;;;;;;;0.40;0.40;;;7.90;99.90;;;;;;4990949;28;20375;-73
2022/04/03 10:58:57;;;;;;;0.50;0.50;;;8.00;99.50;;;;;;5014925;28;20069;-72
2022/04/03 11:01:28;;;;;;;0.80;0.60;;;8.30;99.30;;;;;;5025689;28;20053;-72
2022/04/03 11:03:57;;;;;;;0.60;0.60;;;8.30;98.30;;;;;;5011799;28;20532;-72
2022/04/03 11:06:30;;;;;;;0.63;0.63;;;8.30;98.90;;;;;;4994033;28;20042;-72
2022/04/03 11:08:59;;;;;;;0.60;0.60;;;8.50;99.90;;;;;;4991874;28;20050;-72
2022/04/03 11:11:49;;;;;;;2.63;0.60;;;8.70;99.00;;;;;;4991488;28;20138;-72
2022/04/03 11:14:55;;;;;;;0.40;0.40;;;8.60;98.10;;;;;;4991725;28;20054;-72
2022/04/03 11:17:43;;;;;;;0.60;0.60;;;8.60;98.70;;;;;;4991420;28;20041;-72
2022/04/03 11:20:09;;;;;;;0.40;0.40;;;8.90;98.20;;;;;;4991289;28;20049;-72
2022/04/03 11:22:36;;;;;;;0.43;0.43;;;9.20;96.10;;;;;;4991839;28;20046;-72
2022/04/03 11:25:02;;;;;;;0.30;0.30;;;9.40;97.30;;;;;;4991521;28;20510;-72
2022/04/03 11:27:28;;;;;;;0.80;0.80;;;9.60;95.40;;;;;;5007301;28;20195;-73
2022/04/03 11:29:54;;;;;;;0.90;0.65;;;9.70;96.20;;;;;;4991104;28;20133;-72
2022/04/03 11:32:20;;;;;;;1.45;0.63;;;9.90;96.50;;;;;;5003706;28;20054;-72
2022/04/03 11:34:57;;;;;;;4.93;0.73;;;10.30;97.20;;;;;;4994100;28;20407;-72
2022/04/03 11:37:23;;;;;;;1.05;0.90;;;10.50;93.50;;;;;;5008352;28;20042;-72
2022/04/03 11:39:49;;;;;;;1.17;0.40;;;10.20;90.70;;;;;;5009443;28;20037;-72
2022/04/03 11:42:15;;;;;;;0.50;0.45;;;9.70;90.30;;;;;;5006485;28;20648;-72
2022/04/03 11:44:51;;;;;;;0.47;0.47;;;9.30;91.20;;;;;;4983536;28;20050;-72
2022/04/03 11:47:24;;;;;;;0.82;0.70;;;8.60;94.20;;;;;;5006603;28;20042;-72
2022/04/03 11:50:08;;;;;;;0.35;0.35;;;7.90;97.60;;;;;;4986915;28;20062;-72
2022/04/03 11:52:35;;;;;;;0.38;0.38;;;7.30;99.90;;;;;;5009238;28;20111;-72
2022/04/03 11:55:02;;;;;;;0.32;0.32;;;6.80;99.90;;;;;;5010529;28;20782;-72
2022/04/03 11:57:28;;;;;;;0.30;0.30;;;6.60;99.90;;;;;;4990573;28;20042;-72
2022/04/03 11:59:57;;;;;;;0.30;0.30;;;6.50;99.90;;;;;;5009816;28;20049;-72
2022/04/03 12:02:22;;;;;;;1.30;1.08;;;6.40;99.90;;;;;;4993441;28;20046;-72
2022/04/03 12:04:48;;;;;;;0.40;0.40;;;6.40;99.90;;;;;;4987059;28;20073;-72
2022/04/03 12:07:14;;;;;;;1.05;1.05;;;6.60;99.90;;;;;;5008935;28;20052;-72
2022/04/03 12:09:44;;;;;;;0.40;0.40;;;6.80;99.90;;;;;;5007926;28;20048;-73
2022/04/03 12:12:11;;;;;;;2.65;1.10;;;7.10;99.90;;;;;;5008017;28;20046;-73
2022/04/03 12:14:41;;;;;;;0.40;0.40;;;7.20;99.90;;;;;;5008108;28;20458;-73
2022/04/03 12:17:09;;;;;;;0.50;0.50;;;7.30;99.90;;;;;;5008417;28;20045;-73
2022/04/03 12:19:39;;;;;;;0.30;0.30;;;7.60;99.90;;;;;;4992345;28;20041;-73
2022/04/03 12:22:08;;;;;;;0.20;0.20;;;8.20;99.90;;;;;;5009052;28;20045;-73
2022/04/03 12:24:37;;;;;;;0.38;0.38;;;8.60;99.90;;;;;;5010985;28;20487;-72
2022/04/03 12:27:12;;;;;;;0.40;0.40;;;8.90;99.90;;;;;;5013274;28;20382;-72
2022/04/03 12:29:39;;;;;;;0.40;0.40;;;8.70;99.90;;;;;;5007737;28;20349;-72
2022/04/03 12:32:12;;;;;;;0.35;0.35;;;8.50;99.90;;;;;;4998903;28;20050;-72
2022/04/03 12:34:43;;;;;;;0.30;0.30;;;8.50;99.90;;;;;;4995425;28;20038;-73
2022/04/03 12:37:10;;;;;;;0.20;0.20;;;8.50;99.90;;;;;;5010849;28;20068;-72
2022/04/03 12:39:52;;;;;;;0.57;0.57;;;8.70;99.90;;;;;;5007278;28;20045;-71
2022/04/03 12:42:23;;;;;;;0.30;0.30;;;8.70;99.90;;;;;;5009836;28;20081;-71
2022/04/03 12:44:58;;;;;;;0.20;0.20;;;8.70;99.90;;;;;;5008017;28;20073;-71
2022/04/03 12:47:31;;;;;;;0.28;0.28;;;8.60;99.90;;;;;;5012467;28;20049;-71
2022/04/03 12:50:03;;;;;;;0.22;0.22;;;8.50;99.90;;;;;;4995615;28;20535;-72
2022/04/03 12:52:53;;;;;;;0.40;0.40;;;8.40;99.90;;;;;;4985712;28;20592;-71
2022/04/03 12:55:22;;;;;;;0.40;0.40;;;8.30;99.90;;;;;;5009075;28;20432;-71
2022/04/03 12:58:29;;;;;;;0.30;0.30;;;8.10;99.90;;;;;;4986444;28;20056;-71